Aeroporto :
LOGIN :

Iscrizione | Disclaimer

   EN    FR    IT 

 










Sommario :    VFR   VFR Marginale   IFR   IFR Intensivo   IFR Molto Intensivo
Visibilità : 
Base nubi : 
>= 8 km
>= 3000ft
5 / 8 km
1000 / 3000 ft
1500m / 5 km
500 / 1000 ft
800 / 1500m
200 / 500 ft
< 800m
< 200 ft
Simboli :   Temporali  Nebbia  Neve Forte  Precipitazioni Forti  Vento > 20 kt
SIGMETs :   Varie  Temporali  Ghiacco  Turbolenza  Onda orograficha  Ceneri Vulcaniche







- Altitudine del aeroporto : 162 ft
- Codice IATA : BOD
- Carte del aeroporto


LFBD - Bordeaux / Merignac

ULTIMO METAR :
  • 190730Z AUTO VRB02KT 9999 0500 R23/P2300 R05/0800D R29/P2300 BCFG FEW006 07/06 Q1028

METARs OBSOLETI :
  • 190700Z AUTO 36004KT 9999 1600 FEW004 SCT037 06/05 Q1028
  • 190630Z AUTO 04003KT 320V080 9999 1100 R23/P2300 R05/1100U R29/P2300 BKN037 06/05 Q1027
  • 190600Z AUTO 02003KT 360V070 9999 0900 R23/P2300 R05/1100D R29/P2300 BCFG OVC036 06/06 Q1027
  • 190530Z AUTO 36004KT 9999 OVC035 06/06 Q1027
  • 190500Z AUTO 34004KT 9999 BKN036 06/06 Q1027

TAF TAF LFBD
Valido dal 18 a 18 ore il 20 a 00 ore UTC


181700Z 1818/1924 29010KT 9999 BKN030 TX13/1913Z TN07/1903Z
TEMPO 1818/1901 4000 -RA SCT015TCU OVC030
BECMG 1902/1904 36008KT
PROB40 1902/1906 3000 BR NSC
PROB30
TEMPO 1906/1909 BKN005
ATIS : +33 5 57 92 81 04
Nessun NOTAM noto per questo aeroporto.



MetMap, La meteo Aeronautica in un colpo d'occhio ! - Copyright ORBIFLY Dicembre 2007 - Disclaimer

ORBIFLY MET'MAP TEAM :

Programmazione e sviluppo : Alexandra Zaïnal
Concezione e sviluppo : Baudouin d'Aumeries
Co-Programmazione e sviluppo : Marc-Olivier Méhu
Supporto tecnico e logistico : Manuel Goepfert
Aiuto per la traduzione : Arnaldo La Scala

Contatto : metmap@orbifly.com




FONTI E CREDITI :

   NOAA